Time;durP1;ratioP1;P1;durP2;ratioP2;P2;SDS_P1;SDS_P2;PMS_P1;PMS_P2;Temp;Humidity;BMP_temperature;BMP_pressure;BME280_temperature;BME280_humidity;BME280_pressure;Samples;Min_cycle;Max_cycle;Signal;HPM_P1;HPM_P2
2023/02/16 00:00:42;;;;;;;62.15;28.88;;;4.50;99.90;;;;;;4953063;28;20032;-71
2023/02/16 00:03:19;;;;;;;64.13;27.42;;;4.50;99.90;;;;;;4933676;28;20418;-66
2023/02/16 00:05:46;;;;;;;63.28;28.05;;;4.50;99.90;;;;;;4953454;28;20016;-71
2023/02/16 00:08:12;;;;;;;64.50;29.10;;;4.50;99.90;;;;;;4954381;28;20021;-68
2023/02/16 00:10:39;;;;;;;68.07;28.90;;;4.40;99.90;;;;;;4954887;28;20059;-66
2023/02/16 00:13:46;;;;;;;63.75;28.25;;;4.40;99.90;;;;;;4949735;28;20033;-71
2023/02/16 00:16:23;;;;;;;64.15;27.00;;;4.40;99.90;;;;;;4951357;28;20037;-68
2023/02/16 00:18:50;;;;;;;60.95;28.83;;;4.40;99.90;;;;;;4935328;28;20116;-66
2023/02/16 00:21:16;;;;;;;65.10;27.98;;;4.40;99.90;;;;;;4950825;28;20135;-71
2023/02/16 00:23:42;;;;;;;59.00;29.60;;;4.30;99.90;;;;;;4951123;28;20104;-65
2023/02/16 00:26:16;;;;;;;73.63;28.70;;;4.30;99.90;;;;;;4952572;28;20927;-71
2023/02/16 00:28:43;;;;;;;71.00;29.20;;;4.30;99.90;;;;;;4938182;28;20090;-70
2023/02/16 00:31:17;;;;;;;70.15;30.17;;;4.30;99.90;;;;;;4951637;28;20111;-68
2023/02/16 00:33:43;;;;;;;74.10;28.88;;;4.30;99.90;;;;;;4938451;28;20912;-70
2023/02/16 00:36:09;;;;;;;62.37;29.80;;;4.30;99.90;;;;;;4936613;28;20041;-71
2023/02/16 00:38:34;;;;;;;76.60;31.00;;;4.20;99.90;;;;;;4956087;28;20851;-67
2023/02/16 00:41:00;;;;;;;71.90;30.87;;;4.30;99.90;;;;;;4952987;28;20025;-66
2023/02/16 00:43:27;;;;;;;75.03;31.23;;;4.30;99.90;;;;;;4953105;28;21683;-69
2023/02/16 00:45:55;;;;;;;68.78;30.88;;;4.30;99.90;;;;;;4952530;28;20026;-65
2023/02/16 00:48:21;;;;;;;73.38;30.20;;;4.20;99.90;;;;;;4934918;28;20025;-66
2023/02/16 00:50:47;;;;;;;72.15;30.88;;;4.20;99.90;;;;;;4952943;28;20021;-69
2023/02/16 00:53:13;;;;;;;72.00;30.60;;;4.20;99.90;;;;;;4954276;28;20036;-66
2023/02/16 00:55:40;;;;;;;68.43;30.42;;;4.20;99.90;;;;;;4952401;28;20036;-70
2023/02/16 00:58:35;;;;;;;74.93;33.00;;;4.20;99.90;;;;;;4954038;28;20091;-65
2023/02/16 01:01:15;;;;;;;75.22;31.08;;;4.30;99.90;;;;;;4866727;28;20299;-68
2023/02/16 01:03:42;;;;;;;74.82;31.20;;;4.30;99.90;;;;;;4864987;28;20446;-70
2023/02/16 01:11:44;;;;;;;72.13;30.73;;;4.30;99.90;;;;;;4882681;28;20778;-66
2023/02/16 01:14:11;;;;;;;82.83;32.30;;;4.30;99.90;;;;;;4884031;28;20049;-66
2023/02/16 01:16:40;;;;;;;72.40;31.13;;;4.30;99.90;;;;;;4881092;28;20459;-66
2023/02/16 01:19:09;;;;;;;77.78;32.33;;;4.30;99.90;;;;;;4882928;28;20030;-66
2023/02/16 01:21:34;;;;;;;74.38;32.05;;;4.30;99.90;;;;;;4883091;28;23421;-67
2023/02/16 01:24:00;;;;;;;72.27;30.33;;;4.20;99.90;;;;;;4865851;28;20124;-68
2023/02/16 01:26:26;;;;;;;75.05;31.90;;;4.20;99.90;;;;;;4882602;28;20061;-66
2023/02/16 01:28:52;;;;;;;73.90;33.43;;;4.20;99.90;;;;;;4867155;28;20034;-69
2023/02/16 01:31:18;;;;;;;71.23;30.37;;;4.20;99.90;;;;;;4884804;28;20052;-66
2023/02/16 01:33:44;;;;;;;82.73;31.30;;;4.20;99.90;;;;;;4881446;28;20034;-67
2023/02/16 01:36:32;;;;;;;78.33;33.33;;;4.20;99.90;;;;;;4867675;28;20038;-66
2023/02/16 01:38:59;;;;;;;75.82;33.45;;;4.20;99.90;;;;;;4954902;28;24138;-68
2023/02/16 01:41:28;;;;;;;79.93;33.30;;;4.20;99.90;;;;;;4954999;28;20033;-66
2023/02/16 01:44:08;;;;;;;78.97;32.83;;;4.30;99.90;;;;;;4954629;28;20087;-70
2023/02/16 01:47:11;;;;;;;83.07;34.20;;;4.30;99.90;;;;;;4954403;28;20029;-71
2023/02/16 01:49:36;;;;;;;75.13;33.10;;;4.40;99.90;;;;;;4960751;28;20695;-70
2023/02/16 01:52:11;;;;;;;79.47;33.47;;;4.40;99.90;;;;;;4953469;28;20033;-66
2023/02/16 01:54:52;;;;;;;83.85;35.03;;;4.50;99.90;;;;;;4953204;28;20032;-71
2023/02/16 01:57:40;;;;;;;75.88;33.08;;;4.50;99.90;;;;;;4953729;28;20860;-68
2023/02/16 02:00:11;;;;;;;78.45;33.30;;;4.60;99.90;;;;;;4953876;28;21895;-65
2023/02/16 02:05:33;;;;;;;81.55;35.28;;;4.60;99.90;;;;;;4939095;28;20017;-65
2023/02/16 02:05:46;;;;;;;79.55;33.22;;;4.60;99.90;;;;;;4955774;28;20029;-64
2023/02/16 02:08:28;;;;;;;77.65;33.10;;;4.70;99.90;;;;;;4939342;28;20039;-71
2023/02/16 02:11:22;;;;;;;78.97;34.08;;;4.80;99.90;;;;;;4959090;28;20029;-66
2023/02/16 02:13:54;;;;;;;75.28;32.90;;;4.80;99.90;;;;;;4958801;28;20029;-70
2023/02/16 02:16:23;;;;;;;68.60;32.97;;;4.80;99.90;;;;;;4941009;28;20289;-69
2023/02/16 02:18:49;;;;;;;86.75;35.55;;;4.80;99.90;;;;;;4960435;28;20021;-67
2023/02/16 02:24:49;;;;;;;77.80;31.67;;;4.80;99.90;;;;;;4954666;28;20044;-65
2023/02/16 02:27:21;;;;;;;77.53;33.45;;;4.90;99.90;;;;;;4956318;28;20112;-70
2023/02/16 02:29:46;;;;;;;75.68;33.28;;;4.90;99.90;;;;;;4958761;28;20055;-65
2023/02/16 02:32:20;;;;;;;75.35;34.40;;;4.90;99.90;;;;;;4957028;28;20024;-65
2023/02/16 02:34:59;;;;;;;79.97;34.08;;;4.90;99.90;;;;;;4957198;28;20967;-67
2023/02/16 02:38:06;;;;;;;79.50;33.08;;;5.00;99.90;;;;;;4958051;28;20040;-70
2023/02/16 02:40:34;;;;;;;75.80;33.42;;;5.00;99.90;;;;;;4957689;28;20067;-65
2023/02/16 02:43:13;;;;;;;80.47;33.22;;;5.00;99.90;;;;;;4957565;28;20739;-68
2023/02/16 02:45:48;;;;;;;73.90;32.08;;;5.00;99.90;;;;;;4960369;28;20527;-70
2023/02/16 02:48:14;;;;;;;81.32;35.95;;;5.00;99.90;;;;;;4957994;28;21239;-69
2023/02/16 03:02:47;;;;;;;76.60;33.85;;;5.10;99.90;;;;;;4953230;28;21172;-67
2023/02/16 03:05:14;;;;;;;82.30;33.97;;;5.10;99.90;;;;;;4955643;28;20033;-66
2023/02/16 03:07:47;;;;;;;;;;;5.20;99.90;;;;;;4956963;28;20714;-68
2023/02/16 03:13:20;;;;;;;69.90;31.10;;;5.20;99.90;;;;;;4955120;28;20118;-66
2023/02/16 03:15:48;;;;;;;76.65;34.03;;;5.20;99.90;;;;;;4936011;28;20071;-70
2023/02/16 03:29:21;;;;;;;68.25;32.67;;;5.30;99.90;;;;;;4953534;28;20361;-66
2023/02/16 03:31:48;;;;;;;71.95;31.83;;;5.30;99.90;;;;;;4955381;28;20701;-68
2023/02/16 03:34:15;;;;;;;71.13;32.92;;;5.40;99.90;;;;;;4954567;28;20032;-66
2023/02/16 03:36:43;;;;;;;74.60;31.55;;;5.40;99.90;;;;;;4952421;28;20048;-70
2023/02/16 03:39:10;;;;;;;84.93;33.53;;;5.40;99.90;;;;;;4952431;28;20111;-67
2023/02/16 03:41:42;;;;;;;69.68;31.60;;;5.40;99.90;;;;;;4953785;28;20020;-65
2023/02/16 03:44:09;;;;;;;69.78;30.23;;;5.40;99.90;;;;;;4947173;28;24606;-67
2023/02/16 03:46:35;;;;;;;82.60;33.75;;;5.40;99.90;;;;;;4937545;28;20750;-65
2023/02/16 03:49:01;;;;;;;70.27;32.50;;;5.40;99.90;;;;;;4942964;28;20082;-70
2023/02/16 03:51:26;;;;;;;74.00;31.60;;;5.50;99.90;;;;;;4945449;28;20037;-67
2023/02/16 03:53:52;;;;;;;71.03;30.93;;;5.50;99.90;;;;;;4960807;28;20104;-70
2023/02/16 03:56:18;;;;;;;76.40;32.40;;;5.40;99.90;;;;;;4952004;28;20051;-71
2023/02/16 03:58:44;;;;;;;82.37;32.73;;;5.50;99.90;;;;;;4933766;28;20024;-67
2023/02/16 04:01:10;;;;;;;63.25;30.02;;;5.50;99.90;;;;;;5015047;28;20040;-71
2023/02/16 04:03:36;;;;;;;77.22;31.05;;;5.50;99.90;;;;;;5047939;28;20022;-71
2023/02/16 04:06:02;;;;;;;73.50;32.47;;;5.50;99.90;;;;;;5046939;28;20029;-71
2023/02/16 04:08:27;;;;;;;71.53;31.47;;;5.50;99.90;;;;;;5042306;28;20036;-71
2023/02/16 04:10:55;;;;;;;69.07;30.90;;;5.50;99.90;;;;;;5039210;28;20096;-70
2023/02/16 04:13:22;;;;;;;83.63;35.45;;;5.50;99.90;;;;;;5047442;28;20025;-71
2023/02/16 04:15:48;;;;;;;66.75;29.48;;;5.50;99.90;;;;;;5040016;28;20117;-71
2023/02/16 04:18:14;;;;;;;69.07;31.90;;;5.50;99.90;;;;;;5045563;28;20104;-71
2023/02/16 04:20:40;;;;;;;79.40;32.45;;;5.50;99.90;;;;;;5046732;28;20048;-71
2023/02/16 04:23:06;;;;;;;76.27;31.13;;;5.50;99.90;;;;;;5050796;28;20075;-71
2023/02/16 04:25:32;;;;;;;72.07;32.35;;;5.50;99.90;;;;;;5048691;28;20041;-71
2023/02/16 04:27:58;;;;;;;73.80;33.90;;;5.60;99.90;;;;;;5046393;28;20315;-71
2023/02/16 04:30:28;;;;;;;74.07;33.27;;;5.60;99.90;;;;;;4988512;28;20029;-68
2023/02/16 04:32:54;;;;;;;74.53;31.63;;;5.60;99.90;;;;;;4931809;28;21098;-71
2023/02/16 04:35:20;;;;;;;67.07;29.98;;;5.60;99.90;;;;;;4929911;28;20055;-65
2023/02/16 04:37:46;;;;;;;71.40;31.00;;;5.60;99.90;;;;;;4933711;28;20029;-67
2023/02/16 04:40:13;;;;;;;70.87;30.03;;;5.60;99.90;;;;;;4952582;28;20021;-65
2023/02/16 04:42:43;;;;;;;69.22;32.30;;;5.60;99.90;;;;;;4954756;28;20325;-64
2023/02/16 04:45:10;;;;;;;68.53;30.45;;;5.60;99.90;;;;;;4936520;28;20049;-66
2023/02/16 04:47:36;;;;;;;67.68;29.70;;;5.60;99.90;;;;;;4956954;28;20032;-70
2023/02/16 04:50:03;;;;;;;71.53;30.97;;;5.60;99.90;;;;;;4938541;28;20031;-66
2023/02/16 04:52:29;;;;;;;67.75;30.00;;;5.60;99.90;;;;;;4954406;28;20282;-66
2023/02/16 04:54:54;;;;;;;63.50;28.93;;;5.60;99.90;;;;;;4953081;28;20021;-70
2023/02/16 04:57:22;;;;;;;68.40;30.23;;;5.60;99.90;;;;;;4951314;28;20813;-65
2023/02/16 04:59:48;;;;;;;58.33;29.10;;;5.60;99.90;;;;;;4951619;28;20063;-65
2023/02/16 05:02:14;;;;;;;78.23;31.77;;;5.60;99.90;;;;;;4949390;28;23646;-65
2023/02/16 05:04:41;;;;;;;68.77;29.03;;;5.60;99.90;;;;;;4935336;28;20068;-69
2023/02/16 05:07:06;;;;;;;64.53;30.70;;;5.60;99.90;;;;;;4947693;28;20424;-70
2023/02/16 05:09:32;;;;;;;66.20;29.63;;;5.60;99.90;;;;;;4948163;28;20040;-66
2023/02/16 05:14:45;;;;;;;70.72;32.13;;;5.60;99.90;;;;;;4950392;28;20683;-68
2023/02/16 05:17:20;;;;;;;73.95;32.65;;;5.60;99.90;;;;;;4916059;28;20037;-66
2023/02/16 05:19:49;;;;;;;68.50;30.83;;;5.70;99.90;;;;;;4948893;28;21045;-66
2023/02/16 05:22:16;;;;;;;82.22;37.00;;;5.60;99.90;;;;;;4949704;28;20032;-70
2023/02/16 05:24:43;;;;;;;78.82;38.13;;;5.60;99.90;;;;;;4950885;28;20144;-68
2023/02/16 05:27:23;;;;;;;68.05;33.20;;;5.70;99.90;;;;;;4931591;28;21383;-66
2023/02/16 05:29:49;;;;;;;63.55;28.75;;;5.70;99.90;;;;;;4953857;28;20104;-66
2023/02/16 05:32:16;;;;;;;70.33;31.87;;;5.70;99.90;;;;;;4950962;28;22267;-67
2023/02/16 05:34:43;;;;;;;69.82;33.85;;;5.70;99.90;;;;;;4952213;28;20764;-67
2023/02/16 05:37:09;;;;;;;70.53;32.17;;;5.60;99.90;;;;;;4951568;28;20029;-66
2023/02/16 05:39:35;;;;;;;70.25;33.42;;;5.60;99.90;;;;;;4935247;28;20021;-65
2023/02/16 05:42:01;;;;;;;62.60;31.93;;;5.60;99.90;;;;;;4956760;28;20731;-71
2023/02/16 05:44:27;;;;;;;68.00;31.63;;;5.60;99.90;;;;;;4957617;28;20817;-66
2023/02/16 05:46:53;;;;;;;73.60;33.57;;;5.60;99.90;;;;;;4939767;28;20387;-67
2023/02/16 05:49:19;;;;;;;78.53;32.07;;;5.60;99.90;;;;;;4951983;28;20527;-66
2023/02/16 05:51:45;;;;;;;68.57;32.10;;;5.60;99.90;;;;;;4949239;28;20199;-66
2023/02/16 05:54:15;;;;;;;73.63;30.80;;;5.60;99.90;;;;;;4949217;28;20115;-65
2023/02/16 05:56:45;;;;;;;69.22;30.75;;;5.60;99.90;;;;;;4948860;28;23190;-67
2023/02/16 05:59:14;;;;;;;83.63;36.95;;;5.50;99.90;;;;;;4948755;28;20041;-68
2023/02/16 06:01:41;;;;;;;86.88;43.05;;;5.60;99.90;;;;;;4950836;28;20024;-70
2023/02/16 06:04:08;;;;;;;77.63;32.80;;;5.60;99.90;;;;;;4950559;28;20113;-70
2023/02/16 06:06:36;;;;;;;64.60;31.50;;;5.50;99.90;;;;;;4952031;28;20031;-66
2023/02/16 06:09:03;;;;;;;74.10;32.80;;;5.60;99.90;;;;;;4949703;28;20846;-69
2023/02/16 06:11:35;;;;;;;99.55;44.28;;;5.60;99.90;;;;;;4950041;28;24317;-66
2023/02/16 06:14:06;;;;;;;76.82;32.63;;;5.50;99.90;;;;;;4951522;28;20353;-66
2023/02/16 06:16:35;;;;;;;76.85;32.08;;;5.50;99.90;;;;;;4949954;28;20026;-67
2023/02/16 06:19:02;;;;;;;85.75;35.33;;;5.60;99.90;;;;;;4933017;28;20026;-66
2023/02/16 06:21:29;;;;;;;78.65;35.70;;;5.60;99.90;;;;;;4951102;28;21670;-66
2023/02/16 06:23:55;;;;;;;81.75;35.47;;;5.60;99.90;;;;;;4950687;28;20024;-67
2023/02/16 06:26:21;;;;;;;84.87;37.70;;;5.60;99.90;;;;;;4950132;28;20041;-67
2023/02/16 06:28:47;;;;;;;118.27;57.23;;;5.60;99.90;;;;;;4951024;28;20348;-70
2023/02/16 06:31:13;;;;;;;69.17;32.17;;;5.70;99.90;;;;;;4952537;28;20032;-68
2023/02/16 06:33:39;;;;;;;80.13;35.00;;;5.70;99.90;;;;;;4951395;28;20071;-67
2023/02/16 06:36:05;;;;;;;68.70;32.55;;;5.70;99.90;;;;;;4951422;28;20032;-66
2023/02/16 06:38:31;;;;;;;76.28;34.47;;;5.70;99.90;;;;;;4951556;28;20029;-69
2023/02/16 06:40:57;;;;;;;77.53;31.97;;;5.80;99.90;;;;;;4949919;28;21589;-70
2023/02/16 06:43:22;;;;;;;90.93;36.70;;;5.80;99.90;;;;;;4949306;28;20029;-67
2023/02/16 06:45:48;;;;;;;79.27;34.43;;;5.80;99.90;;;;;;4931822;28;20040;-67
2023/02/16 06:48:14;;;;;;;84.87;37.03;;;5.80;99.90;;;;;;5047048;28;20033;-69
2023/02/16 06:50:39;;;;;;;85.20;39.40;;;5.80;99.90;;;;;;5027773;28;20838;-66
2023/02/16 06:53:05;;;;;;;71.67;35.37;;;5.80;99.90;;;;;;5048550;28;20060;-71
2023/02/16 06:55:35;;;;;;;76.97;32.97;;;5.90;99.90;;;;;;5037326;28;20032;-71
2023/02/16 06:58:01;;;;;;;78.00;36.25;;;5.90;99.90;;;;;;5049372;28;20032;-71
2023/02/16 07:00:28;;;;;;;84.78;37.35;;;5.90;99.90;;;;;;5053433;28;20028;-71
2023/02/16 07:02:54;;;;;;;71.03;35.17;;;5.90;99.90;;;;;;5036042;28;20394;-70
2023/02/16 07:05:19;;;;;;;69.67;31.80;;;6.00;99.90;;;;;;5035834;28;20029;-71
2023/02/16 07:07:45;;;;;;;66.83;31.43;;;6.00;99.90;;;;;;5043025;28;20030;-71
2023/02/16 07:10:11;;;;;;;80.83;40.33;;;6.00;99.90;;;;;;5041402;28;20104;-71
2023/02/16 07:12:37;;;;;;;93.53;45.17;;;6.00;99.90;;;;;;5044303;28;20035;-71
2023/02/16 07:15:03;;;;;;;87.37;44.30;;;6.00;99.90;;;;;;5047119;28;20403;-70
2023/02/16 07:17:29;;;;;;;80.03;35.65;;;6.10;99.90;;;;;;5034363;28;20021;-70
2023/02/16 07:19:55;;;;;;;68.38;32.28;;;6.10;99.90;;;;;;5039706;28;20304;-71
2023/02/16 07:22:21;;;;;;;77.43;34.13;;;6.10;99.90;;;;;;4981877;28;20082;-67
2023/02/16 07:24:47;;;;;;;96.07;42.27;;;6.20;99.90;;;;;;4954914;28;20045;-65
2023/02/16 07:27:12;;;;;;;78.63;38.20;;;6.20;99.90;;;;;;4999775;28;20029;-71
2023/02/16 07:29:38;;;;;;;78.93;33.90;;;6.10;99.90;;;;;;4996772;28;23794;-70
2023/02/16 07:32:04;;;;;;;69.25;31.38;;;6.20;99.90;;;;;;4949234;28;20032;-70
2023/02/16 07:34:30;;;;;;;68.87;31.97;;;6.20;99.90;;;;;;4930743;28;20790;-69
2023/02/16 07:36:56;;;;;;;79.73;36.93;;;6.20;99.90;;;;;;4949315;28;20037;-69
2023/02/16 07:39:21;;;;;;;82.50;33.03;;;6.30;99.90;;;;;;4943346;28;20027;-73
2023/02/16 07:41:47;;;;;;;76.77;34.53;;;6.20;99.90;;;;;;4926959;28;20029;-71
2023/02/16 07:44:13;;;;;;;82.60;34.00;;;6.30;99.90;;;;;;4944243;28;23578;-67
2023/02/16 07:46:38;;;;;;;79.17;32.73;;;6.30;99.90;;;;;;4943419;28;20021;-72
2023/02/16 07:49:04;;;;;;;71.17;31.63;;;6.30;99.90;;;;;;4947680;28;21719;-65
2023/02/16 07:51:30;;;;;;;72.97;33.10;;;6.30;99.90;;;;;;4930642;28;20774;-72
2023/02/16 07:53:57;;;;;;;71.37;33.57;;;6.40;99.90;;;;;;4947831;28;20020;-66
2023/02/16 07:56:26;;;;;;;72.88;35.08;;;6.40;99.90;;;;;;4930689;28;20907;-68
2023/02/16 07:58:52;;;;;;;96.85;35.55;;;6.40;99.90;;;;;;4948155;28;23436;-72
2023/02/16 08:01:18;;;;;;;82.57;35.42;;;6.40;99.90;;;;;;4947534;28;20111;-72
2023/02/16 08:03:44;;;;;;;78.22;33.80;;;6.40;99.90;;;;;;4945949;28;20044;-69
2023/02/16 08:06:10;;;;;;;71.53;32.80;;;6.40;99.90;;;;;;4948467;28;20031;-72
2023/02/16 08:08:36;;;;;;;72.88;32.67;;;6.40;99.90;;;;;;4946542;28;20683;-73
2023/02/16 08:11:19;;;;;;;80.35;33.38;;;6.40;99.90;;;;;;4950046;28;20419;-66
2023/02/16 08:13:46;;;;;;;77.75;36.45;;;6.40;99.90;;;;;;4932010;28;20033;-66
2023/02/16 08:16:17;;;;;;;68.45;34.53;;;6.40;99.90;;;;;;4947289;28;20037;-71
2023/02/16 08:18:44;;;;;;;84.78;38.95;;;6.50;99.90;;;;;;4929834;28;20194;-70
2023/02/16 08:21:16;;;;;;;70.25;36.35;;;6.50;99.90;;;;;;4948625;28;20113;-71
2023/02/16 08:23:46;;;;;;;69.00;34.78;;;6.50;99.90;;;;;;4930477;28;20047;-65
2023/02/16 08:26:14;;;;;;;71.95;33.67;;;6.50;99.90;;;;;;4930116;28;20126;-72
2023/02/16 08:28:44;;;;;;;80.35;34.60;;;6.50;99.90;;;;;;4947338;28;21029;-69
2023/02/16 08:31:12;;;;;;;75.22;33.63;;;6.50;99.90;;;;;;4944391;28;20070;-72
2023/02/16 08:33:38;;;;;;;73.32;34.40;;;6.60;99.90;;;;;;4943052;28;20035;-67
2023/02/16 08:36:08;;;;;;;74.65;32.25;;;6.60;99.90;;;;;;4945059;28;20029;-67
2023/02/16 08:38:34;;;;;;;72.22;34.30;;;6.60;99.90;;;;;;4946981;28;20763;-72
2023/02/16 08:41:00;;;;;;;78.05;35.78;;;6.60;99.90;;;;;;4947612;28;20032;-68
2023/02/16 08:43:26;;;;;;;67.23;33.10;;;6.60;99.90;;;;;;4945803;28;20024;-67
2023/02/16 08:45:52;;;;;;;74.60;34.23;;;6.60;99.90;;;;;;4947521;28;20446;-68
2023/02/16 08:48:18;;;;;;;72.13;35.20;;;6.60;99.90;;;;;;4946191;28;20328;-69
2023/02/16 08:50:55;;;;;;;76.33;34.87;;;6.60;99.90;;;;;;4948071;28;20043;-68
2023/02/16 08:53:22;;;;;;;71.28;33.45;;;6.60;99.90;;;;;;4947591;28;20032;-69
2023/02/16 08:55:54;;;;;;;;;;;6.60;99.90;;;;;;4946758;28;20123;-71
2023/02/16 08:58:20;;;;;;;69.80;31.55;;;6.60;99.90;;;;;;4947296;28;19913;-70
2023/02/16 09:00:46;;;;;;;80.70;35.40;;;6.60;99.90;;;;;;4945869;28;20059;-68
2023/02/16 09:03:12;;;;;;;79.50;36.37;;;6.60;99.90;;;;;;4946474;28;20029;-67
2023/02/16 09:05:38;;;;;;;82.60;36.17;;;6.60;99.90;;;;;;4946774;28;20043;-66
2023/02/16 09:08:04;;;;;;;72.90;34.55;;;6.60;99.90;;;;;;4946231;28;20036;-68
2023/02/16 09:10:30;;;;;;;78.53;35.70;;;6.60;99.90;;;;;;4945396;28;20119;-72
2023/02/16 09:12:57;;;;;;;82.25;36.00;;;6.60;99.90;;;;;;4946165;28;20065;-71
2023/02/16 09:15:22;;;;;;;84.85;37.85;;;6.60;99.90;;;;;;4987154;28;20067;-67
2023/02/16 09:17:48;;;;;;;78.73;34.63;;;6.60;99.90;;;;;;4951163;28;20103;-73
2023/02/16 09:20:14;;;;;;;83.13;37.73;;;6.60;99.90;;;;;;4947309;28;20115;-72
2023/02/16 09:22:43;;;;;;;84.53;36.13;;;6.70;99.90;;;;;;4946286;28;23634;-72
2023/02/16 09:25:10;;;;;;;84.03;38.10;;;6.70;99.90;;;;;;4978191;28;20414;-72
2023/02/16 09:27:36;;;;;;;92.85;38.92;;;6.80;99.90;;;;;;4937657;28;20741;-67
2023/02/16 09:30:02;;;;;;;77.57;36.27;;;6.80;99.90;;;;;;4949461;28;20045;-68
2023/02/16 09:32:29;;;;;;;91.28;39.00;;;6.80;99.90;;;;;;4947548;28;20611;-72
2023/02/16 09:34:55;;;;;;;79.43;36.95;;;6.90;99.90;;;;;;4952421;28;20404;-72
2023/02/16 09:37:20;;;;;;;87.18;40.08;;;7.00;99.90;;;;;;4950676;28;20088;-68
2023/02/16 09:39:46;;;;;;;80.47;37.63;;;7.10;99.90;;;;;;4948337;28;20021;-73
2023/02/16 09:42:35;;;;;;;88.75;38.38;;;7.20;99.90;;;;;;4951805;28;20048;-66
2023/02/16 09:45:08;;;;;;;102.60;41.22;;;7.30;99.90;;;;;;4951488;28;20750;-70
2023/02/16 09:47:38;;;;;;;89.45;40.95;;;7.30;99.90;;;;;;4950098;28;20039;-67
2023/02/16 09:50:26;;;;;;;106.20;46.40;;;7.40;99.90;;;;;;4950163;28;20020;-71
2023/02/16 09:53:12;;;;;;;133.98;58.45;;;7.40;99.90;;;;;;4949103;28;20846;-72
2023/02/16 09:55:58;;;;;;;139.68;59.70;;;7.40;99.90;;;;;;4932195;28;20419;-73
2023/02/16 09:58:36;;;;;;;81.70;39.58;;;7.50;99.90;;;;;;4949492;28;20161;-71
2023/02/16 10:01:13;;;;;;;94.03;41.53;;;7.60;99.90;;;;;;4951021;28;24645;-68
2023/02/16 10:03:54;;;;;;;88.18;40.65;;;7.70;99.90;;;;;;4951414;28;20021;-69
2023/02/16 10:06:22;;;;;;;82.75;41.03;;;7.90;99.90;;;;;;4947509;28;20139;-69
2023/02/16 10:08:55;;;;;;;87.20;41.20;;;8.00;99.90;;;;;;4951052;28;20119;-71
2023/02/16 10:11:39;;;;;;;90.03;40.03;;;8.20;99.90;;;;;;4951083;28;20029;-67
2023/02/16 10:14:20;;;;;;;86.05;44.20;;;8.20;99.90;;;;;;4953060;28;20021;-69
2023/02/16 10:16:57;;;;;;;76.22;36.65;;;8.20;99.90;;;;;;4933705;28;20123;-69
2023/02/16 10:19:32;;;;;;;76.68;36.58;;;8.30;99.90;;;;;;4955445;28;20382;-67
2023/02/16 10:22:01;;;;;;;75.38;35.22;;;8.30;99.90;;;;;;4950145;28;20119;-67
2023/02/16 10:24:32;;;;;;;79.45;36.33;;;8.30;99.90;;;;;;4948827;28;20626;-71
2023/02/16 10:27:07;;;;;;;84.20;35.45;;;8.30;99.90;;;;;;4949730;28;20127;-67
2023/02/16 10:29:33;;;;;;;79.55;36.83;;;8.30;99.90;;;;;;4949650;28;20123;-69
2023/02/16 10:32:29;;;;;;;79.27;36.67;;;8.30;99.90;;;;;;4948357;28;20086;-69
2023/02/16 10:35:10;;;;;;;72.90;33.88;;;8.40;99.90;;;;;;4949646;28;20033;-68
2023/02/16 10:37:47;;;;;;;72.40;34.38;;;8.40;99.90;;;;;;4949678;28;20040;-67
2023/02/16 10:40:45;;;;;;;70.53;35.08;;;8.30;99.90;;;;;;4945316;28;20021;-69
2023/02/16 10:43:16;;;;;;;74.90;34.80;;;8.30;99.90;;;;;;4931162;28;20308;-70
2023/02/16 10:45:49;;;;;;;73.07;35.72;;;8.40;99.90;;;;;;4949167;28;20600;-72
2023/02/16 10:48:15;;;;;;;76.72;34.92;;;8.40;99.90;;;;;;4948322;28;20639;-68
2023/02/16 10:50:45;;;;;;;67.30;34.53;;;8.50;99.90;;;;;;4947693;28;20173;-68
2023/02/16 10:53:23;;;;;;;76.82;37.13;;;8.60;99.90;;;;;;4949388;28;20025;-68
2023/02/16 10:55:49;;;;;;;71.03;35.30;;;8.70;99.90;;;;;;4945672;28;20029;-72
2023/02/16 10:58:19;;;;;;;65.60;33.17;;;8.80;99.90;;;;;;4969481;28;22052;-73
2023/02/16 11:01:10;;;;;;;71.07;34.10;;;8.90;99.90;;;;;;4947262;28;20823;-67
2023/02/16 11:03:43;;;;;;;71.50;33.67;;;8.90;99.90;;;;;;4932807;28;21160;-68
2023/02/16 11:06:21;;;;;;;65.95;34.22;;;9.00;99.90;;;;;;4927649;28;20500;-68
2023/02/16 11:08:55;;;;;;;67.78;34.08;;;9.00;99.90;;;;;;4930736;28;20693;-69
2023/02/16 11:11:23;;;;;;;73.63;36.17;;;9.00;99.90;;;;;;4950010;28;20906;-67
2023/02/16 11:13:58;;;;;;;74.38;35.80;;;9.10;99.90;;;;;;4950624;28;21489;-67
2023/02/16 11:16:25;;;;;;;72.30;35.78;;;9.30;99.90;;;;;;4949151;28;20547;-71
2023/02/16 11:19:07;;;;;;;69.15;32.33;;;9.40;99.90;;;;;;4944774;28;20729;-70
2023/02/16 11:21:49;;;;;;;69.78;32.83;;;9.50;99.90;;;;;;4945281;28;20021;-72
2023/02/16 11:24:36;;;;;;;79.32;33.28;;;9.40;99.90;;;;;;4927344;28;20427;-72
2023/02/16 11:27:20;;;;;;;68.28;33.08;;;9.50;99.90;;;;;;4944425;28;20539;-68
2023/02/16 11:29:47;;;;;;;68.72;33.10;;;9.60;99.90;;;;;;4928185;28;20669;-70
2023/02/16 11:32:15;;;;;;;71.05;32.63;;;9.60;99.90;;;;;;4945099;28;20116;-70
2023/02/16 11:34:52;;;;;;;64.95;33.42;;;9.60;99.90;;;;;;4928388;28;20032;-71
2023/02/16 11:37:24;;;;;;;70.60;33.72;;;9.60;99.90;;;;;;4942657;28;20029;-69
2023/02/16 11:40:09;;;;;;;81.10;37.22;;;9.80;99.90;;;;;;4944771;28;20020;-67
2023/02/16 11:42:40;;;;;;;75.30;34.97;;;9.90;99.90;;;;;;4929831;28;20355;-68
2023/02/16 11:45:08;;;;;;;62.83;30.38;;;10.00;99.90;;;;;;4949692;28;20017;-69
2023/02/16 11:47:37;;;;;;;63.90;33.97;;;10.10;99.90;;;;;;4949912;28;20025;-68
2023/02/16 11:50:24;;;;;;;73.85;34.92;;;10.30;99.90;;;;;;4947544;28;20817;-71
2023/02/16 11:52:57;;;;;;;62.92;32.05;;;10.40;99.90;;;;;;4943756;28;20055;-73
2023/02/16 11:55:26;;;;;;;60.53;32.10;;;10.40;99.90;;;;;;4945918;28;20522;-71
2023/02/16 11:57:53;;;;;;;61.72;32.20;;;10.40;99.90;;;;;;4946554;28;20016;-72
2023/02/16 12:00:23;;;;;;;81.38;37.45;;;10.40;99.90;;;;;;4948527;28;20449;-69
2023/02/16 12:03:27;;;;;;;69.15;32.33;;;10.60;99.90;;;;;;4947396;28;20036;-69
2023/02/16 12:05:55;;;;;;;70.25;34.08;;;10.80;99.90;;;;;;4948100;28;23876;-70
2023/02/16 12:08:57;;;;;;;59.53;30.95;;;10.80;99.90;;;;;;4945606;28;20036;-68
2023/02/16 12:11:50;;;;;;;70.22;35.92;;;10.80;99.90;;;;;;4934374;28;20045;-68
2023/02/16 12:14:26;;;;;;;62.70;31.33;;;10.90;99.90;;;;;;4946624;28;20048;-70
2023/02/16 12:17:21;;;;;;;54.20;28.63;;;10.80;99.90;;;;;;4948950;28;20044;-74
2023/02/16 12:19:57;;;;;;;57.90;28.27;;;10.80;99.90;;;;;;4930255;28;20043;-68
2023/02/16 12:22:47;;;;;;;50.80;25.73;;;11.00;99.90;;;;;;4931258;28;20031;-68
2023/02/16 12:25:32;;;;;;;60.58;27.42;;;11.10;99.90;;;;;;4946430;28;20127;-68
2023/02/16 12:28:04;;;;;;;47.93;26.53;;;11.20;99.90;;;;;;4946737;28;20115;-69
2023/02/16 12:31:06;;;;;;;49.80;25.33;;;11.30;99.90;;;;;;4929357;28;21313;-69
2023/02/16 12:34:28;;;;;;;44.95;23.77;;;11.50;99.90;;;;;;4927732;28;20029;-67
2023/02/16 12:37:03;;;;;;;38.70;21.30;;;11.50;99.90;;;;;;4864678;28;20030;-72
2023/02/16 12:39:47;;;;;;;45.90;22.50;;;11.40;99.90;;;;;;4867390;28;20614;-69
2023/02/16 12:42:20;;;;;;;40.35;21.83;;;11.40;99.90;;;;;;4917197;28;20756;-68
2023/02/16 12:44:52;;;;;;;37.70;22.35;;;11.30;99.90;;;;;;4927186;28;20033;-68
2023/02/16 12:47:39;;;;;;;41.17;21.15;;;11.30;99.90;;;;;;4943989;28;20029;-69
2023/02/16 12:50:24;;;;;;;46.67;23.70;;;11.40;99.90;;;;;;4947240;28;20031;-72
2023/02/16 12:53:02;;;;;;;47.05;23.60;;;11.50;99.90;;;;;;4946172;28;20021;-69
2023/02/16 12:55:49;;;;;;;49.10;23.85;;;11.70;99.90;;;;;;4947835;28;23904;-73
2023/02/16 12:58:29;;;;;;;47.00;22.50;;;11.70;99.90;;;;;;4944365;28;20021;-68
2023/02/16 13:01:00;;;;;;;40.15;22.23;;;11.70;99.90;;;;;;4928207;28;20021;-75
2023/02/16 13:04:23;;;;;;;40.75;22.30;;;11.50;99.90;;;;;;4928863;28;20039;-69
2023/02/16 13:07:05;;;;;;;45.92;22.55;;;11.50;99.90;;;;;;4831119;29;20627;-74
2023/02/16 13:09:42;;;;;;;40.63;22.27;;;11.40;99.90;;;;;;4832609;29;20031;-74
2023/02/16 13:12:35;;;;;;;44.08;21.98;;;11.40;99.90;;;;;;4832869;29;20110;-72
2023/02/16 13:15:09;;;;;;;41.33;21.05;;;11.40;99.90;;;;;;4831016;29;20166;-68
2023/02/16 13:17:43;;;;;;;47.17;22.60;;;11.40;99.90;;;;;;4830222;29;20267;-70
2023/02/16 13:20:16;;;;;;;41.80;21.33;;;11.30;99.90;;;;;;4814595;29;20027;-68
2023/02/16 13:22:54;;;;;;;39.15;20.35;;;11.30;99.90;;;;;;4829636;29;20036;-68
2023/02/16 13:25:32;;;;;;;42.13;21.42;;;11.30;99.90;;;;;;4831474;29;20043;-68
2023/02/16 13:28:21;;;;;;;46.55;21.83;;;11.20;99.90;;;;;;4829515;29;20454;-68
2023/02/16 13:31:14;;;;;;;42.20;21.90;;;11.20;99.90;;;;;;4831459;29;20042;-74
2023/02/16 13:33:45;;;;;;;48.70;22.70;;;11.30;99.90;;;;;;4829306;29;20683;-70
2023/02/16 13:36:27;;;;;;;53.60;26.58;;;11.40;99.90;;;;;;4829781;29;20917;-69